sensor_id;sensor_type;location;lat;lon;timestamp;P1;durP1;ratioP1;P2;durP2;ratioP2
79646;SDS011;69119;41.718;21.786;2023-05-07T00:01:46;13.32;;;8.30;;
79646;SDS011;69119;41.718;21.786;2023-05-07T00:04:12;14.77;;;9.20;;
79646;SDS011;69119;41.718;21.786;2023-05-07T00:06:38;13.40;;;8.90;;
79646;SDS011;69119;41.718;21.786;2023-05-07T00:09:05;14.18;;;9.48;;
79646;SDS011;69119;41.718;21.786;2023-05-07T00:11:31;14.25;;;8.98;;
79646;SDS011;69119;41.718;21.786;2023-05-07T00:13:58;13.93;;;8.52;;
79646;SDS011;69119;41.718;21.786;2023-05-07T00:18:50;14.95;;;9.13;;
79646;SDS011;69119;41.718;21.786;2023-05-07T00:21:16;11.63;;;7.85;;
79646;SDS011;69119;41.718;21.786;2023-05-07T00:23:42;13.38;;;9.18;;
79646;SDS011;69119;41.718;21.786;2023-05-07T00:26:08;16.45;;;9.75;;
79646;SDS011;69119;41.718;21.786;2023-05-07T00:28:34;14.18;;;10.10;;
79646;SDS011;69119;41.718;21.786;2023-05-07T00:31:01;13.05;;;9.40;;
79646;SDS011;69119;41.718;21.786;2023-05-07T00:33:27;14.05;;;8.55;;
79646;SDS011;69119;41.718;21.786;2023-05-07T00:35:53;13.27;;;8.32;;
79646;SDS011;69119;41.718;21.786;2023-05-07T00:38:19;14.52;;;8.05;;
79646;SDS011;69119;41.718;21.786;2023-05-07T00:40:45;13.68;;;8.50;;
79646;SDS011;69119;41.718;21.786;2023-05-07T00:43:11;13.68;;;8.70;;
79646;SDS011;69119;41.718;21.786;2023-05-07T00:45:37;13.25;;;8.88;;
79646;SDS011;69119;41.718;21.786;2023-05-07T00:48:04;12.90;;;8.15;;
79646;SDS011;69119;41.718;21.786;2023-05-07T00:50:30;14.07;;;8.98;;
79646;SDS011;69119;41.718;21.786;2023-05-07T00:52:56;13.80;;;8.98;;
79646;SDS011;69119;41.718;21.786;2023-05-07T00:55:22;13.57;;;8.10;;
79646;SDS011;69119;41.718;21.786;2023-05-07T01:00:15;14.63;;;8.07;;
79646;SDS011;69119;41.718;21.786;2023-05-07T01:02:42;16.42;;;9.00;;
79646;SDS011;69119;41.718;21.786;2023-05-07T01:07:34;14.80;;;8.48;;
79646;SDS011;69119;41.718;21.786;2023-05-07T01:10:00;13.75;;;9.30;;
79646;SDS011;69119;41.718;21.786;2023-05-07T01:12:27;13.15;;;9.27;;
79646;SDS011;69119;41.718;21.786;2023-05-07T01:14:54;15.45;;;8.75;;
79646;SDS011;69119;41.718;21.786;2023-05-07T01:17:20;17.27;;;9.63;;
79646;SDS011;69119;41.718;21.786;2023-05-07T01:19:46;14.95;;;9.35;;
79646;SDS011;69119;41.718;21.786;2023-05-07T01:22:13;15.20;;;9.35;;
79646;SDS011;69119;41.718;21.786;2023-05-07T01:24:41;14.38;;;8.90;;
79646;SDS011;69119;41.718;21.786;2023-05-07T01:27:07;13.75;;;7.68;;
79646;SDS011;69119;41.718;21.786;2023-05-07T01:29:33;13.45;;;8.07;;
79646;SDS011;69119;41.718;21.786;2023-05-07T01:32:00;12.23;;;7.82;;
79646;SDS011;69119;41.718;21.786;2023-05-07T01:34:30;11.75;;;7.32;;
79646;SDS011;69119;41.718;21.786;2023-05-07T01:36:57;14.38;;;8.13;;
79646;SDS011;69119;41.718;21.786;2023-05-07T01:39:24;16.30;;;9.68;;
79646;SDS011;69119;41.718;21.786;2023-05-07T01:41:51;15.90;;;9.27;;
79646;SDS011;69119;41.718;21.786;2023-05-07T01:44:18;14.02;;;8.32;;
79646;SDS011;69119;41.718;21.786;2023-05-07T01:46:45;15.93;;;8.32;;
79646;SDS011;69119;41.718;21.786;2023-05-07T01:49:11;14.02;;;9.02;;
79646;SDS011;69119;41.718;21.786;2023-05-07T01:51:37;15.98;;;10.18;;
79646;SDS011;69119;41.718;21.786;2023-05-07T01:54:03;15.05;;;8.77;;
79646;SDS011;69119;41.718;21.786;2023-05-07T01:56:30;15.15;;;10.38;;
79646;SDS011;69119;41.718;21.786;2023-05-07T01:58:56;13.32;;;8.77;;
79646;SDS011;69119;41.718;21.786;2023-05-07T02:01:22;13.10;;;8.48;;
79646;SDS011;69119;41.718;21.786;2023-05-07T02:03:48;14.18;;;10.32;;
79646;SDS011;69119;41.718;21.786;2023-05-07T02:06:14;15.20;;;9.85;;
79646;SDS011;69119;41.718;21.786;2023-05-07T02:08:40;14.32;;;9.98;;
79646;SDS011;69119;41.718;21.786;2023-05-07T02:11:06;13.82;;;9.80;;
79646;SDS011;69119;41.718;21.786;2023-05-07T02:13:33;16.13;;;10.32;;
79646;SDS011;69119;41.718;21.786;2023-05-07T02:15:59;16.67;;;10.10;;
79646;SDS011;69119;41.718;21.786;2023-05-07T02:18:25;14.00;;;9.48;;
79646;SDS011;69119;41.718;21.786;2023-05-07T02:20:51;12.85;;;8.73;;
79646;SDS011;69119;41.718;21.786;2023-05-07T02:23:18;15.30;;;9.88;;
79646;SDS011;69119;41.718;21.786;2023-05-07T02:25:44;13.55;;;9.40;;
79646;SDS011;69119;41.718;21.786;2023-05-07T02:28:10;14.93;;;10.05;;
79646;SDS011;69119;41.718;21.786;2023-05-07T02:30:37;14.32;;;9.65;;
79646;SDS011;69119;41.718;21.786;2023-05-07T02:33:03;16.80;;;10.88;;
79646;SDS011;69119;41.718;21.786;2023-05-07T02:35:29;15.48;;;10.25;;
79646;SDS011;69119;41.718;21.786;2023-05-07T02:37:55;17.40;;;10.70;;
79646;SDS011;69119;41.718;21.786;2023-05-07T02:40:22;15.57;;;10.05;;
79646;SDS011;69119;41.718;21.786;2023-05-07T02:42:48;15.63;;;9.90;;
79646;SDS011;69119;41.718;21.786;2023-05-07T02:45:14;17.27;;;9.60;;
79646;SDS011;69119;41.718;21.786;2023-05-07T02:47:40;16.38;;;10.02;;
79646;SDS011;69119;41.718;21.786;2023-05-07T02:50:06;14.73;;;8.63;;
79646;SDS011;69119;41.718;21.786;2023-05-07T02:52:32;17.25;;;10.55;;
79646;SDS011;69119;41.718;21.786;2023-05-07T02:54:58;17.83;;;10.45;;
79646;SDS011;69119;41.718;21.786;2023-05-07T02:57:24;16.15;;;10.30;;
79646;SDS011;69119;41.718;21.786;2023-05-07T02:59:50;16.65;;;10.02;;
79646;SDS011;69119;41.718;21.786;2023-05-07T03:02:16;15.02;;;9.48;;
79646;SDS011;69119;41.718;21.786;2023-05-07T03:04:43;16.67;;;9.32;;
79646;SDS011;69119;41.718;21.786;2023-05-07T03:07:09;14.77;;;9.55;;
79646;SDS011;69119;41.718;21.786;2023-05-07T03:09:35;17.83;;;9.52;;
79646;SDS011;69119;41.718;21.786;2023-05-07T03:12:01;16.42;;;8.88;;
79646;SDS011;69119;41.718;21.786;2023-05-07T03:14:27;14.07;;;8.63;;
79646;SDS011;69119;41.718;21.786;2023-05-07T03:16:53;14.30;;;9.75;;
79646;SDS011;69119;41.718;21.786;2023-05-07T03:19:19;14.27;;;9.45;;
79646;SDS011;69119;41.718;21.786;2023-05-07T03:21:45;17.00;;;9.65;;
79646;SDS011;69119;41.718;21.786;2023-05-07T03:24:11;13.48;;;8.85;;
79646;SDS011;69119;41.718;21.786;2023-05-07T03:26:37;14.90;;;9.27;;
79646;SDS011;69119;41.718;21.786;2023-05-07T03:29:03;17.08;;;10.25;;
79646;SDS011;69119;41.718;21.786;2023-05-07T03:31:29;16.08;;;10.27;;
79646;SDS011;69119;41.718;21.786;2023-05-07T03:33:56;15.63;;;9.20;;
79646;SDS011;69119;41.718;21.786;2023-05-07T03:36:22;16.52;;;9.15;;
79646;SDS011;69119;41.718;21.786;2023-05-07T03:38:48;16.38;;;10.20;;
79646;SDS011;69119;41.718;21.786;2023-05-07T03:41:15;12.93;;;8.52;;
79646;SDS011;69119;41.718;21.786;2023-05-07T03:43:41;15.38;;;9.63;;
79646;SDS011;69119;41.718;21.786;2023-05-07T03:46:07;13.98;;;8.55;;
79646;SDS011;69119;41.718;21.786;2023-05-07T03:48:33;16.35;;;10.63;;
79646;SDS011;69119;41.718;21.786;2023-05-07T03:50:59;14.18;;;9.68;;
79646;SDS011;69119;41.718;21.786;2023-05-07T03:53:25;15.80;;;9.73;;
79646;SDS011;69119;41.718;21.786;2023-05-07T03:55:51;12.90;;;8.63;;
79646;SDS011;69119;41.718;21.786;2023-05-07T03:58:18;15.38;;;10.05;;
79646;SDS011;69119;41.718;21.786;2023-05-07T04:00:44;17.30;;;11.63;;
79646;SDS011;69119;41.718;21.786;2023-05-07T04:03:10;15.48;;;10.10;;
79646;SDS011;69119;41.718;21.786;2023-05-07T04:05:36;19.25;;;9.45;;
79646;SDS011;69119;41.718;21.786;2023-05-07T04:08:02;13.63;;;8.85;;
79646;SDS011;69119;41.718;21.786;2023-05-07T04:10:29;18.63;;;10.10;;
79646;SDS011;69119;41.718;21.786;2023-05-07T04:12:55;17.00;;;9.93;;
79646;SDS011;69119;41.718;21.786;2023-05-07T04:15:22;15.38;;;9.95;;
79646;SDS011;69119;41.718;21.786;2023-05-07T04:17:48;16.77;;;9.90;;
79646;SDS011;69119;41.718;21.786;2023-05-07T04:20:14;15.35;;;9.93;;
79646;SDS011;69119;41.718;21.786;2023-05-07T04:22:41;14.98;;;9.20;;
79646;SDS011;69119;41.718;21.786;2023-05-07T04:25:07;14.20;;;9.40;;
79646;SDS011;69119;41.718;21.786;2023-05-07T04:27:36;18.33;;;10.38;;
79646;SDS011;69119;41.718;21.786;2023-05-07T04:30:03;15.00;;;10.38;;
79646;SDS011;69119;41.718;21.786;2023-05-07T04:32:29;16.73;;;9.35;;
79646;SDS011;69119;41.718;21.786;2023-05-07T04:34:56;17.98;;;10.23;;
79646;SDS011;69119;41.718;21.786;2023-05-07T04:39:48;15.02;;;8.90;;
79646;SDS011;69119;41.718;21.786;2023-05-07T04:42:15;13.90;;;9.90;;
79646;SDS011;69119;41.718;21.786;2023-05-07T04:44:41;13.73;;;8.75;;
79646;SDS011;69119;41.718;21.786;2023-05-07T04:47:07;12.73;;;8.57;;
79646;SDS011;69119;41.718;21.786;2023-05-07T04:49:33;11.75;;;7.13;;
79646;SDS011;69119;41.718;21.786;2023-05-07T04:51:59;16.60;;;9.45;;
79646;SDS011;69119;41.718;21.786;2023-05-07T04:54:26;13.63;;;7.90;;
79646;SDS011;69119;41.718;21.786;2023-05-07T04:56:52;13.38;;;7.82;;
79646;SDS011;69119;41.718;21.786;2023-05-07T04:59:18;13.80;;;8.63;;
79646;SDS011;69119;41.718;21.786;2023-05-07T05:01:44;11.90;;;7.10;;
79646;SDS011;69119;41.718;21.786;2023-05-07T05:04:10;14.27;;;8.23;;
79646;SDS011;69119;41.718;21.786;2023-05-07T05:06:36;11.88;;;8.05;;
79646;SDS011;69119;41.718;21.786;2023-05-07T05:09:02;12.52;;;8.40;;
79646;SDS011;69119;41.718;21.786;2023-05-07T05:11:30;11.95;;;7.63;;
79646;SDS011;69119;41.718;21.786;2023-05-07T05:13:56;14.38;;;7.88;;
79646;SDS011;69119;41.718;21.786;2023-05-07T05:16:22;14.90;;;9.30;;
79646;SDS011;69119;41.718;21.786;2023-05-07T05:18:48;12.82;;;8.80;;
79646;SDS011;69119;41.718;21.786;2023-05-07T05:21:14;12.93;;;8.50;;
79646;SDS011;69119;41.718;21.786;2023-05-07T05:23:40;14.07;;;8.55;;
79646;SDS011;69119;41.718;21.786;2023-05-07T05:26:06;15.25;;;8.57;;
79646;SDS011;69119;41.718;21.786;2023-05-07T05:28:32;12.15;;;7.43;;
79646;SDS011;69119;41.718;21.786;2023-05-07T05:30:58;14.52;;;8.30;;
79646;SDS011;69119;41.718;21.786;2023-05-07T05:33:24;10.35;;;7.30;;
79646;SDS011;69119;41.718;21.786;2023-05-07T05:35:50;13.25;;;8.50;;
79646;SDS011;69119;41.718;21.786;2023-05-07T05:38:16;10.75;;;7.13;;
79646;SDS011;69119;41.718;21.786;2023-05-07T05:40:42;11.20;;;6.72;;
79646;SDS011;69119;41.718;21.786;2023-05-07T05:43:08;12.13;;;7.80;;
79646;SDS011;69119;41.718;21.786;2023-05-07T05:45:34;11.60;;;6.88;;
79646;SDS011;69119;41.718;21.786;2023-05-07T05:48:00;12.32;;;7.20;;
79646;SDS011;69119;41.718;21.786;2023-05-07T05:50:26;12.50;;;7.72;;
79646;SDS011;69119;41.718;21.786;2023-05-07T05:52:52;12.10;;;8.30;;
79646;SDS011;69119;41.718;21.786;2023-05-07T05:55:19;12.10;;;7.30;;
79646;SDS011;69119;41.718;21.786;2023-05-07T05:57:45;11.13;;;7.78;;
79646;SDS011;69119;41.718;21.786;2023-05-07T06:00:11;12.93;;;7.82;;
79646;SDS011;69119;41.718;21.786;2023-05-07T06:02:37;12.05;;;7.85;;
79646;SDS011;69119;41.718;21.786;2023-05-07T06:05:03;12.80;;;8.38;;
79646;SDS011;69119;41.718;21.786;2023-05-07T06:09:56;11.48;;;7.80;;
79646;SDS011;69119;41.718;21.786;2023-05-07T06:12:22;11.75;;;7.75;;
79646;SDS011;69119;41.718;21.786;2023-05-07T06:14:48;12.20;;;7.20;;
79646;SDS011;69119;41.718;21.786;2023-05-07T06:17:14;9.82;;;6.35;;
79646;SDS011;69119;41.718;21.786;2023-05-07T06:22:06;9.75;;;5.50;;
79646;SDS011;69119;41.718;21.786;2023-05-07T06:24:32;10.35;;;6.88;;
79646;SDS011;69119;41.718;21.786;2023-05-07T06:26:58;11.18;;;5.93;;
79646;SDS011;69119;41.718;21.786;2023-05-07T06:29:24;9.43;;;6.35;;
79646;SDS011;69119;41.718;21.786;2023-05-07T06:31:55;10.00;;;7.05;;
79646;SDS011;69119;41.718;21.786;2023-05-07T06:34:21;9.63;;;7.30;;
79646;SDS011;69119;41.718;21.786;2023-05-07T06:36:47;8.70;;;5.45;;
79646;SDS011;69119;41.718;21.786;2023-05-07T06:39:13;8.63;;;5.95;;
79646;SDS011;69119;41.718;21.786;2023-05-07T06:41:39;9.77;;;5.65;;
79646;SDS011;69119;41.718;21.786;2023-05-07T06:44:05;9.23;;;6.45;;
79646;SDS011;69119;41.718;21.786;2023-05-07T06:46:31;9.27;;;6.38;;
79646;SDS011;69119;41.718;21.786;2023-05-07T06:48:57;9.63;;;6.75;;
79646;SDS011;69119;41.718;21.786;2023-05-07T06:53:49;8.65;;;5.10;;
79646;SDS011;69119;41.718;21.786;2023-05-07T06:58:41;9.90;;;6.18;;
79646;SDS011;69119;41.718;21.786;2023-05-07T07:01:07;9.23;;;5.95;;
79646;SDS011;69119;41.718;21.786;2023-05-07T07:03:33;9.45;;;6.60;;
79646;SDS011;69119;41.718;21.786;2023-05-07T07:05:59;12.38;;;6.90;;
79646;SDS011;69119;41.718;21.786;2023-05-07T07:08:27;10.13;;;6.45;;
79646;SDS011;69119;41.718;21.786;2023-05-07T07:13:19;10.13;;;6.80;;
79646;SDS011;69119;41.718;21.786;2023-05-07T07:18:10;9.73;;;5.70;;
79646;SDS011;69119;41.718;21.786;2023-05-07T07:20:37;10.60;;;5.93;;
79646;SDS011;69119;41.718;21.786;2023-05-07T07:23:03;8.52;;;6.18;;
79646;SDS011;69119;41.718;21.786;2023-05-07T07:25:29;8.80;;;5.50;;
79646;SDS011;69119;41.718;21.786;2023-05-07T07:30:21;10.23;;;6.30;;
79646;SDS011;69119;41.718;21.786;2023-05-07T07:35:13;9.45;;;5.82;;
79646;SDS011;69119;41.718;21.786;2023-05-07T07:37:39;10.45;;;6.80;;
79646;SDS011;69119;41.718;21.786;2023-05-07T07:40:05;9.55;;;6.00;;
79646;SDS011;69119;41.718;21.786;2023-05-07T07:42:31;9.93;;;5.47;;
79646;SDS011;69119;41.718;21.786;2023-05-07T07:47:23;10.50;;;6.65;;
79646;SDS011;69119;41.718;21.786;2023-05-07T07:49:49;11.68;;;6.55;;
79646;SDS011;69119;41.718;21.786;2023-05-07T07:52:17;8.93;;;5.97;;
79646;SDS011;69119;41.718;21.786;2023-05-07T07:54:44;10.73;;;5.53;;
79646;SDS011;69119;41.718;21.786;2023-05-07T07:57:10;10.40;;;6.72;;
79646;SDS011;69119;41.718;21.786;2023-05-07T07:59:36;10.77;;;6.85;;
79646;SDS011;69119;41.718;21.786;2023-05-07T08:02:02;9.63;;;5.78;;
79646;SDS011;69119;41.718;21.786;2023-05-07T08:04:28;8.88;;;4.75;;
79646;SDS011;69119;41.718;21.786;2023-05-07T08:06:55;8.45;;;4.13;;
79646;SDS011;69119;41.718;21.786;2023-05-07T08:09:21;8.32;;;4.03;;
79646;SDS011;69119;41.718;21.786;2023-05-07T08:11:47;6.63;;;3.95;;
79646;SDS011;69119;41.718;21.786;2023-05-07T08:14:13;6.60;;;3.83;;
79646;SDS011;69119;41.718;21.786;2023-05-07T08:16:40;7.85;;;3.97;;
79646;SDS011;69119;41.718;21.786;2023-05-07T08:19:07;7.13;;;3.75;;
79646;SDS011;69119;41.718;21.786;2023-05-07T08:21:33;6.38;;;3.85;;
79646;SDS011;69119;41.718;21.786;2023-05-07T08:23:59;6.70;;;3.80;;
79646;SDS011;69119;41.718;21.786;2023-05-07T08:26:25;8.38;;;4.05;;
79646;SDS011;69119;41.718;21.786;2023-05-07T08:28:51;6.68;;;4.68;;
79646;SDS011;69119;41.718;21.786;2023-05-07T08:31:17;7.47;;;4.30;;
79646;SDS011;69119;41.718;21.786;2023-05-07T08:33:44;6.50;;;3.72;;
79646;SDS011;69119;41.718;21.786;2023-05-07T08:36:10;9.52;;;4.15;;
79646;SDS011;69119;41.718;21.786;2023-05-07T08:38:36;8.20;;;4.75;;
79646;SDS011;69119;41.718;21.786;2023-05-07T08:41:02;7.15;;;4.28;;
79646;SDS011;69119;41.718;21.786;2023-05-07T08:43:28;7.15;;;4.65;;
79646;SDS011;69119;41.718;21.786;2023-05-07T08:45:54;8.30;;;4.53;;
79646;SDS011;69119;41.718;21.786;2023-05-07T08:48:21;7.53;;;4.53;;
79646;SDS011;69119;41.718;21.786;2023-05-07T08:50:47;8.93;;;4.82;;
79646;SDS011;69119;41.718;21.786;2023-05-07T08:53:14;7.30;;;4.05;;
79646;SDS011;69119;41.718;21.786;2023-05-07T08:55:42;7.13;;;4.13;;
79646;SDS011;69119;41.718;21.786;2023-05-07T08:58:08;7.53;;;4.15;;
79646;SDS011;69119;41.718;21.786;2023-05-07T09:00:35;6.28;;;3.90;;
79646;SDS011;69119;41.718;21.786;2023-05-07T09:03:02;6.93;;;4.70;;
79646;SDS011;69119;41.718;21.786;2023-05-07T09:05:28;7.47;;;3.67;;
79646;SDS011;69119;41.718;21.786;2023-05-07T09:07:54;9.18;;;3.63;;
79646;SDS011;69119;41.718;21.786;2023-05-07T09:10:20;6.97;;;3.72;;
79646;SDS011;69119;41.718;21.786;2023-05-07T09:12:47;7.20;;;4.10;;
79646;SDS011;69119;41.718;21.786;2023-05-07T09:15:13;6.68;;;3.72;;
79646;SDS011;69119;41.718;21.786;2023-05-07T09:17:39;7.03;;;3.83;;
79646;SDS011;69119;41.718;21.786;2023-05-07T09:20:07;9.15;;;3.83;;
79646;SDS011;69119;41.718;21.786;2023-05-07T09:22:35;7.70;;;4.68;;
79646;SDS011;69119;41.718;21.786;2023-05-07T09:25:02;8.60;;;4.10;;
79646;SDS011;69119;41.718;21.786;2023-05-07T09:27:28;6.35;;;3.72;;
79646;SDS011;69119;41.718;21.786;2023-05-07T09:29:54;6.85;;;3.60;;
79646;SDS011;69119;41.718;21.786;2023-05-07T09:32:20;6.20;;;3.40;;
79646;SDS011;69119;41.718;21.786;2023-05-07T09:34:46;6.43;;;3.67;;
79646;SDS011;69119;41.718;21.786;2023-05-07T09:37:13;6.63;;;3.63;;
79646;SDS011;69119;41.718;21.786;2023-05-07T09:39:46;8.88;;;4.03;;
79646;SDS011;69119;41.718;21.786;2023-05-07T09:42:12;6.13;;;3.65;;
79646;SDS011;69119;41.718;21.786;2023-05-07T09:44:40;6.47;;;3.85;;
79646;SDS011;69119;41.718;21.786;2023-05-07T09:47:06;7.32;;;3.83;;
79646;SDS011;69119;41.718;21.786;2023-05-07T09:49:34;7.20;;;3.60;;
79646;SDS011;69119;41.718;21.786;2023-05-07T09:52:01;8.18;;;4.07;;
79646;SDS011;69119;41.718;21.786;2023-05-07T09:54:27;7.45;;;3.55;;
79646;SDS011;69119;41.718;21.786;2023-05-07T09:56:57;6.53;;;3.67;;
79646;SDS011;69119;41.718;21.786;2023-05-07T09:59:24;6.75;;;4.38;;
79646;SDS011;69119;41.718;21.786;2023-05-07T10:01:51;6.30;;;3.38;;
79646;SDS011;69119;41.718;21.786;2023-05-07T10:04:18;6.57;;;3.78;;
79646;SDS011;69119;41.718;21.786;2023-05-07T10:06:44;8.77;;;4.13;;
79646;SDS011;69119;41.718;21.786;2023-05-07T10:09:10;8.05;;;4.03;;
79646;SDS011;69119;41.718;21.786;2023-05-07T10:11:37;6.53;;;3.92;;
79646;SDS011;69119;41.718;21.786;2023-05-07T10:14:03;10.18;;;6.07;;
79646;SDS011;69119;41.718;21.786;2023-05-07T10:16:34;9.80;;;4.60;;
79646;SDS011;69119;41.718;21.786;2023-05-07T10:19:04;6.68;;;3.67;;
79646;SDS011;69119;41.718;21.786;2023-05-07T10:21:31;11.15;;;4.38;;
79646;SDS011;69119;41.718;21.786;2023-05-07T10:24:21;7.20;;;3.65;;
79646;SDS011;69119;41.718;21.786;2023-05-07T10:26:47;6.40;;;3.83;;
79646;SDS011;69119;41.718;21.786;2023-05-07T10:34:33;7.82;;;4.78;;
79646;SDS011;69119;41.718;21.786;2023-05-07T10:37:00;10.20;;;4.88;;
79646;SDS011;69119;41.718;21.786;2023-05-07T10:39:27;8.40;;;3.78;;
79646;SDS011;69119;41.718;21.786;2023-05-07T10:41:53;6.90;;;3.78;;
79646;SDS011;69119;41.718;21.786;2023-05-07T10:44:25;7.45;;;3.25;;
79646;SDS011;69119;41.718;21.786;2023-05-07T10:47:06;7.30;;;4.18;;
79646;SDS011;69119;41.718;21.786;2023-05-07T10:49:34;7.05;;;3.65;;
79646;SDS011;69119;41.718;21.786;2023-05-07T10:52:16;8.57;;;4.15;;
79646;SDS011;69119;41.718;21.786;2023-05-07T10:54:43;7.55;;;4.82;;
79646;SDS011;69119;41.718;21.786;2023-05-07T10:59:54;6.82;;;4.25;;
79646;SDS011;69119;41.718;21.786;2023-05-07T11:02:20;7.57;;;3.72;;
79646;SDS011;69119;41.718;21.786;2023-05-07T11:04:54;7.53;;;3.88;;
79646;SDS011;69119;41.718;21.786;2023-05-07T11:07:32;9.20;;;3.90;;
79646;SDS011;69119;41.718;21.786;2023-05-07T11:09:59;6.18;;;3.42;;
79646;SDS011;69119;41.718;21.786;2023-05-07T11:15:08;6.75;;;5.10;;
79646;SDS011;69119;41.718;21.786;2023-05-07T11:17:34;6.03;;;3.20;;
79646;SDS011;69119;41.718;21.786;2023-05-07T11:20:01;5.45;;;2.83;;
79646;SDS011;69119;41.718;21.786;2023-05-07T11:25:00;5.65;;;2.88;;
79646;SDS011;69119;41.718;21.786;2023-05-07T11:27:27;6.55;;;3.38;;
79646;SDS011;69119;41.718;21.786;2023-05-07T11:29:53;6.22;;;3.08;;
79646;SDS011;69119;41.718;21.786;2023-05-07T11:32:26;6.72;;;4.22;;
79646;SDS011;69119;41.718;21.786;2023-05-07T11:34:56;6.38;;;3.97;;
79646;SDS011;69119;41.718;21.786;2023-05-07T11:37:23;5.97;;;2.72;;
79646;SDS011;69119;41.718;21.786;2023-05-07T11:39:49;6.40;;;3.80;;
79646;SDS011;69119;41.718;21.786;2023-05-07T11:44:52;5.22;;;2.10;;
79646;SDS011;69119;41.718;21.786;2023-05-07T11:49:46;7.18;;;2.85;;
79646;SDS011;69119;41.718;21.786;2023-05-07T11:52:13;5.15;;;2.33;;
79646;SDS011;69119;41.718;21.786;2023-05-07T11:54:39;6.78;;;3.20;;
79646;SDS011;69119;41.718;21.786;2023-05-07T11:59:38;6.60;;;3.42;;
79646;SDS011;69119;41.718;21.786;2023-05-07T12:02:13;6.15;;;3.42;;
79646;SDS011;69119;41.718;21.786;2023-05-07T12:04:40;5.65;;;3.17;;
79646;SDS011;69119;41.718;21.786;2023-05-07T12:07:12;7.53;;;3.22;;
79646;SDS011;69119;41.718;21.786;2023-05-07T12:09:39;6.32;;;3.05;;
79646;SDS011;69119;41.718;21.786;2023-05-07T12:12:05;6.60;;;2.65;;
79646;SDS011;69119;41.718;21.786;2023-05-07T12:14:31;5.65;;;2.40;;
79646;SDS011;69119;41.718;21.786;2023-05-07T12:16:58;5.15;;;2.33;;
79646;SDS011;69119;41.718;21.786;2023-05-07T12:19:27;6.60;;;2.88;;
79646;SDS011;69119;41.718;21.786;2023-05-07T12:21:53;5.90;;;2.90;;
79646;SDS011;69119;41.718;21.786;2023-05-07T12:24:19;7.15;;;2.95;;
79646;SDS011;69119;41.718;21.786;2023-05-07T12:26:46;5.30;;;2.78;;
79646;SDS011;69119;41.718;21.786;2023-05-07T12:29:12;5.53;;;2.70;;
79646;SDS011;69119;41.718;21.786;2023-05-07T12:31:40;6.57;;;3.25;;
79646;SDS011;69119;41.718;21.786;2023-05-07T12:34:06;7.20;;;3.28;;
79646;SDS011;69119;41.718;21.786;2023-05-07T12:36:39;7.10;;;3.25;;
79646;SDS011;69119;41.718;21.786;2023-05-07T12:39:05;6.50;;;3.20;;
79646;SDS011;69119;41.718;21.786;2023-05-07T12:41:35;8.23;;;3.42;;
79646;SDS011;69119;41.718;21.786;2023-05-07T12:44:04;7.35;;;3.42;;
79646;SDS011;69119;41.718;21.786;2023-05-07T12:46:30;6.97;;;3.67;;
79646;SDS011;69119;41.718;21.786;2023-05-07T12:48:56;7.85;;;3.28;;
79646;SDS011;69119;41.718;21.786;2023-05-07T12:51:22;6.45;;;3.00;;
79646;SDS011;69119;41.718;21.786;2023-05-07T12:53:48;7.13;;;3.85;;
79646;SDS011;69119;41.718;21.786;2023-05-07T12:56:15;8.35;;;3.53;;
79646;SDS011;69119;41.718;21.786;2023-05-07T12:58:41;6.32;;;2.95;;
79646;SDS011;69119;41.718;21.786;2023-05-07T13:03:35;6.63;;;3.15;;
79646;SDS011;69119;41.718;21.786;2023-05-07T13:06:02;6.70;;;2.95;;
79646;SDS011;69119;41.718;21.786;2023-05-07T13:08:29;8.32;;;3.33;;
79646;SDS011;69119;41.718;21.786;2023-05-07T13:10:59;6.70;;;3.42;;
79646;SDS011;69119;41.718;21.786;2023-05-07T13:13:31;5.68;;;2.95;;
79646;SDS011;69119;41.718;21.786;2023-05-07T13:15:58;6.63;;;3.20;;
79646;SDS011;69119;41.718;21.786;2023-05-07T13:20:50;7.10;;;3.15;;
79646;SDS011;69119;41.718;21.786;2023-05-07T13:23:16;6.72;;;3.72;;
79646;SDS011;69119;41.718;21.786;2023-05-07T13:25:42;7.13;;;2.92;;
79646;SDS011;69119;41.718;21.786;2023-05-07T13:28:08;8.25;;;3.72;;
79646;SDS011;69119;41.718;21.786;2023-05-07T13:30:34;6.78;;;3.50;;
79646;SDS011;69119;41.718;21.786;2023-05-07T13:33:00;6.07;;;3.28;;
79646;SDS011;69119;41.718;21.786;2023-05-07T13:35:26;8.63;;;3.72;;
79646;SDS011;69119;41.718;21.786;2023-05-07T13:37:53;6.10;;;3.38;;
79646;SDS011;69119;41.718;21.786;2023-05-07T13:40:20;9.10;;;3.58;;
79646;SDS011;69119;41.718;21.786;2023-05-07T13:42:46;7.00;;;3.63;;
79646;SDS011;69119;41.718;21.786;2023-05-07T13:45:12;6.88;;;3.30;;
79646;SDS011;69119;41.718;21.786;2023-05-07T13:47:39;7.45;;;3.60;;
79646;SDS011;69119;41.718;21.786;2023-05-07T13:50:06;6.10;;;3.25;;
79646;SDS011;69119;41.718;21.786;2023-05-07T13:52:32;7.43;;;3.05;;
79646;SDS011;69119;41.718;21.786;2023-05-07T13:54:58;8.45;;;3.75;;
79646;SDS011;69119;41.718;21.786;2023-05-07T13:57:25;6.75;;;3.53;;
79646;SDS011;69119;41.718;21.786;2023-05-07T13:59:51;7.15;;;3.42;;
79646;SDS011;69119;41.718;21.786;2023-05-07T14:02:17;6.78;;;3.80;;
79646;SDS011;69119;41.718;21.786;2023-05-07T14:04:43;11.45;;;4.07;;
79646;SDS011;69119;41.718;21.786;2023-05-07T14:07:10;6.40;;;3.13;;
79646;SDS011;69119;41.718;21.786;2023-05-07T14:09:36;7.10;;;3.50;;
79646;SDS011;69119;41.718;21.786;2023-05-07T14:12:02;6.82;;;3.30;;
79646;SDS011;69119;41.718;21.786;2023-05-07T14:14:28;6.53;;;3.20;;
79646;SDS011;69119;41.718;21.786;2023-05-07T14:16:54;6.95;;;3.60;;
79646;SDS011;69119;41.718;21.786;2023-05-07T14:21:47;6.97;;;3.88;;
79646;SDS011;69119;41.718;21.786;2023-05-07T14:24:13;7.93;;;3.60;;
79646;SDS011;69119;41.718;21.786;2023-05-07T14:26:40;6.45;;;3.95;;
79646;SDS011;69119;41.718;21.786;2023-05-07T14:31:32;6.88;;;3.13;;
79646;SDS011;69119;41.718;21.786;2023-05-07T14:33:58;7.65;;;3.50;;
79646;SDS011;69119;41.718;21.786;2023-05-07T14:36:24;8.10;;;3.90;;
79646;SDS011;69119;41.718;21.786;2023-05-07T14:38:55;7.28;;;4.05;;
79646;SDS011;69119;41.718;21.786;2023-05-07T14:41:24;7.75;;;3.92;;
79646;SDS011;69119;41.718;21.786;2023-05-07T14:43:50;7.28;;;4.05;;
79646;SDS011;69119;41.718;21.786;2023-05-07T14:46:17;7.22;;;3.72;;
79646;SDS011;69119;41.718;21.786;2023-05-07T14:48:43;8.60;;;3.33;;
79646;SDS011;69119;41.718;21.786;2023-05-07T14:51:10;6.82;;;3.58;;
79646;SDS011;69119;41.718;21.786;2023-05-07T14:53:36;8.43;;;3.55;;
79646;SDS011;69119;41.718;21.786;2023-05-07T14:56:02;6.03;;;3.40;;
79646;SDS011;69119;41.718;21.786;2023-05-07T14:58:28;7.07;;;3.30;;
79646;SDS011;69119;41.718;21.786;2023-05-07T15:00:55;7.03;;;3.60;;
79646;SDS011;69119;41.718;21.786;2023-05-07T15:03:21;8.63;;;3.38;;
79646;SDS011;69119;41.718;21.786;2023-05-07T15:05:47;7.25;;;3.97;;
79646;SDS011;69119;41.718;21.786;2023-05-07T15:08:16;8.20;;;3.90;;
79646;SDS011;69119;41.718;21.786;2023-05-07T15:13:08;6.65;;;4.00;;
79646;SDS011;69119;41.718;21.786;2023-05-07T15:15:35;7.18;;;3.58;;
79646;SDS011;69119;41.718;21.786;2023-05-07T15:18:01;6.22;;;3.72;;
79646;SDS011;69119;41.718;21.786;2023-05-07T15:20:27;8.70;;;3.53;;
79646;SDS011;69119;41.718;21.786;2023-05-07T15:25:20;11.93;;;3.58;;
79646;SDS011;69119;41.718;21.786;2023-05-07T15:30:12;8.10;;;3.83;;
79646;SDS011;69119;41.718;21.786;2023-05-07T15:32:39;8.23;;;3.85;;
79646;SDS011;69119;41.718;21.786;2023-05-07T15:35:05;6.80;;;4.30;;